createdAt,value
2022-12-08T00:02:58.009Z,36.30
2022-12-08T00:05:43.659Z,41.47
2022-12-08T00:08:28.895Z,42.47
2022-12-08T00:10:56.647Z,43.47
2022-12-08T00:13:24.581Z,45.83
2022-12-08T00:15:52.311Z,54.28
2022-12-08T00:18:21.431Z,55.88
2022-12-08T00:20:55.746Z,53.05
2022-12-08T00:23:23.600Z,61.83
2022-12-08T00:25:51.360Z,57.03
2022-12-08T00:28:19.560Z,58.10
2022-12-08T00:30:47.316Z,63.25
2022-12-08T00:33:15.089Z,68.05
2022-12-08T00:35:44.126Z,63.05
2022-12-08T00:38:12.718Z,70.72
2022-12-08T00:40:44.580Z,81.30
2022-12-08T00:43:12.391Z,73.93
2022-12-08T00:45:40.529Z,70.55
2022-12-08T00:48:08.479Z,74.03
2022-12-08T00:50:36.304Z,77.35
2022-12-08T00:53:05.386Z,75.00
2022-12-08T00:55:33.154Z,75.10
2022-12-08T00:58:00.917Z,77.75
2022-12-08T01:00:28.675Z,77.68
2022-12-08T01:02:56.431Z,70.28
2022-12-08T01:05:24.221Z,72.70
2022-12-08T01:07:52.076Z,75.13
2022-12-08T01:10:21.201Z,69.90
2022-12-08T01:12:48.920Z,72.85
2022-12-08T01:15:16.703Z,75.55
2022-12-08T01:17:44.421Z,69.60
2022-12-08T01:22:39.700Z,72.45
2022-12-08T01:27:36.420Z,78.03
2022-12-08T01:30:04.798Z,78.60
2022-12-08T01:32:32.755Z,79.78
2022-12-08T01:35:01.712Z,83.38
2022-12-08T01:37:30.687Z,74.93
2022-12-08T01:39:58.459Z,74.40
2022-12-08T01:42:26.605Z,74.03
2022-12-08T01:44:57.576Z,70.13
2022-12-08T01:47:27.118Z,79.75
2022-12-08T01:49:54.777Z,80.80
2022-12-08T01:54:54.037Z,80.60
2022-12-08T01:57:23.071Z,77.45
2022-12-08T01:59:54.314Z,77.22
2022-12-08T02:02:24.228Z,73.88
2022-12-08T02:04:52.020Z,73.22
2022-12-08T02:07:19.821Z,78.03
2022-12-08T02:09:47.653Z,79.13
2022-12-08T02:12:15.793Z,80.75
2022-12-08T02:14:43.652Z,74.00
2022-12-08T02:17:19.112Z,75.00
2022-12-08T02:20:05.505Z,76.40
2022-12-08T02:22:39.343Z,76.20
2022-12-08T02:25:09.867Z,81.13
2022-12-08T02:27:42.418Z,68.40
2022-12-08T02:30:19.672Z,79.10
2022-12-08T02:33:11.443Z,78.68
2022-12-08T02:35:46.269Z,73.25
2022-12-08T02:38:18.369Z,72.65
2022-12-08T02:40:49.775Z,68.88
2022-12-08T02:43:22.394Z,70.82
2022-12-08T02:45:51.513Z,69.45
2022-12-08T02:48:21.959Z,74.70
2022-12-08T02:50:51.028Z,73.50
2022-12-08T02:53:18.729Z,76.03
2022-12-08T02:58:23.928Z,65.22
2022-12-08T03:00:59.743Z,61.40
2022-12-08T03:03:33.054Z,75.43
2022-12-08T03:06:07.099Z,68.70
2022-12-08T03:08:36.993Z,65.70
2022-12-08T03:11:07.795Z,67.13
2022-12-08T03:13:39.614Z,61.22
2022-12-08T03:16:09.336Z,64.32
2022-12-08T03:18:39.252Z,60.38
2022-12-08T03:21:08.553Z,68.15
2022-12-08T03:23:37.403Z,59.78
2022-12-08T03:26:08.240Z,67.45
2022-12-08T03:28:36.129Z,64.85
2022-12-08T03:31:06.107Z,72.60
2022-12-08T03:33:34.978Z,69.43
2022-12-08T03:36:03.559Z,71.55
2022-12-08T03:38:39.916Z,62.47
2022-12-08T03:41:27.311Z,64.85
2022-12-08T03:43:55.725Z,65.90
2022-12-08T03:48:51.601Z,66.82
2022-12-08T03:51:19.972Z,64.78
2022-12-08T03:53:49.098Z,68.30
2022-12-08T03:56:20.898Z,66.10
2022-12-08T03:58:48.643Z,66.65
2022-12-08T04:03:44.072Z,69.78
2022-12-08T04:06:11.965Z,61.78
2022-12-08T04:08:40.086Z,62.08
2022-12-08T04:11:09.506Z,57.05
2022-12-08T04:13:38.055Z,55.03
2022-12-08T04:16:06.112Z,60.22
2022-12-08T04:18:33.972Z,62.45
2022-12-08T04:21:01.791Z,51.35
2022-12-08T04:23:29.503Z,58.33
2022-12-08T04:28:26.472Z,72.60
2022-12-08T04:30:54.350Z,81.30
2022-12-08T04:33:22.207Z,76.45
2022-12-08T04:35:49.963Z,92.20
2022-12-08T04:38:17.850Z,74.88
2022-12-08T04:40:45.860Z,73.85
2022-12-08T04:43:13.566Z,65.07
2022-12-08T04:48:12.632Z,72.22
2022-12-08T04:50:41.148Z,75.30
2022-12-08T04:53:08.939Z,66.13
2022-12-08T04:55:39.146Z,77.93
2022-12-08T04:58:06.931Z,75.00
2022-12-08T05:03:02.247Z,69.28
2022-12-08T05:05:31.386Z,70.70
2022-12-08T05:07:59.195Z,69.13
2022-12-08T05:10:26.952Z,70.63
2022-12-08T05:12:54.739Z,74.43
2022-12-08T05:15:22.521Z,72.97
2022-12-08T05:17:50.414Z,66.85
2022-12-08T05:20:18.164Z,69.40
2022-12-08T05:25:14.984Z,73.90
2022-12-08T05:27:43.295Z,70.00
2022-12-08T05:30:11.139Z,61.88
2022-12-08T05:32:39.109Z,57.67
2022-12-08T05:35:07.363Z,58.88
2022-12-08T05:37:35.097Z,54.92
2022-12-08T05:40:03.219Z,70.30
2022-12-08T05:42:32.679Z,85.65
2022-12-08T05:45:00.382Z,133.15
2022-12-08T05:49:59.475Z,70.05
2022-12-08T05:54:54.837Z,64.22
2022-12-08T05:57:22.629Z,58.10
2022-12-08T05:59:52.082Z,59.65
2022-12-08T06:02:19.909Z,59.00
2022-12-08T06:04:47.666Z,58.28
2022-12-08T06:09:44.119Z,66.00
2022-12-08T06:12:11.899Z,70.97
2022-12-08T06:14:39.929Z,74.85
2022-12-08T06:17:09.121Z,77.63
2022-12-08T06:19:37.103Z,62.60
2022-12-08T06:22:04.827Z,72.82
2022-12-08T06:27:00.231Z,124.97
2022-12-08T06:29:28.026Z,69.82
2022-12-08T06:31:55.794Z,58.75
2022-12-08T06:34:24.990Z,65.07
2022-12-08T06:36:52.807Z,63.20
2022-12-08T06:39:20.529Z,58.30
2022-12-08T06:42:06.283Z,58.92
2022-12-08T06:44:34.512Z,56.70
2022-12-08T06:47:02.250Z,57.83
2022-12-08T06:51:59.167Z,62.42
2022-12-08T06:54:27.941Z,51.90
2022-12-08T06:56:55.811Z,59.53
2022-12-08T06:59:26.090Z,56.47
2022-12-08T07:01:54.124Z,53.05
2022-12-08T07:04:21.896Z,57.42
2022-12-08T07:06:49.672Z,51.60
2022-12-08T07:11:46.531Z,55.42
2022-12-08T07:14:14.621Z,53.47
2022-12-08T07:16:42.451Z,55.10
2022-12-08T07:19:10.222Z,51.67
2022-12-08T07:24:05.819Z,55.53
2022-12-08T07:26:33.825Z,55.88
2022-12-08T07:29:03.005Z,59.17
2022-12-08T07:31:31.041Z,59.33
2022-12-08T07:33:58.809Z,57.92
2022-12-08T07:36:26.801Z,55.10
2022-12-08T07:38:54.840Z,49.45
2022-12-08T07:41:24.130Z,54.80
2022-12-08T07:43:52.141Z,57.97
2022-12-08T07:46:22.681Z,54.83
2022-12-08T07:48:50.571Z,54.97
2022-12-08T07:53:53.447Z,69.97
2022-12-08T07:56:22.190Z,64.63
2022-12-08T07:58:49.929Z,61.60
2022-12-08T08:03:46.657Z,68.00
2022-12-08T08:06:14.520Z,68.80
2022-12-08T08:08:42.187Z,74.82
2022-12-08T08:13:47.105Z,65.22
2022-12-08T08:16:14.900Z,69.57
2022-12-08T08:18:43.577Z,64.40
2022-12-08T08:24:00.616Z,64.47
2022-12-08T08:26:28.487Z,59.92
2022-12-08T08:28:56.313Z,52.28
2022-12-08T08:33:57.890Z,53.88
2022-12-08T08:36:27.014Z,59.50
2022-12-08T08:38:54.832Z,74.07
2022-12-08T08:41:22.580Z,56.00
2022-12-08T08:46:17.923Z,60.78
2022-12-08T08:48:45.845Z,55.63
2022-12-08T08:53:43.042Z,46.15
2022-12-08T08:56:11.478Z,48.22
2022-12-08T08:58:39.307Z,49.92
2022-12-08T09:01:07.250Z,53.70
2022-12-08T09:03:36.223Z,57.30
2022-12-08T09:08:31.623Z,48.88
2022-12-08T09:11:00.790Z,60.97
2022-12-08T09:13:28.595Z,67.05
2022-12-08T09:15:56.609Z,56.50
2022-12-08T09:18:24.530Z,55.85
2022-12-08T09:20:52.483Z,59.00
2022-12-08T09:23:20.228Z,52.97
2022-12-08T09:25:48.227Z,68.05
2022-12-08T09:28:17.470Z,71.60
2022-12-08T09:30:45.628Z,57.08
2022-12-08T09:33:13.361Z,56.95
2022-12-08T09:38:08.694Z,63.05
2022-12-08T09:40:41.681Z,58.08
2022-12-08T09:43:13.380Z,58.28
2022-12-08T09:45:43.040Z,60.22
2022-12-08T09:48:13.037Z,58.08
2022-12-08T09:50:45.336Z,62.55
2022-12-08T09:53:16.955Z,67.68
2022-12-08T09:55:47.542Z,59.92
2022-12-08T09:58:20.747Z,102.10
2022-12-08T10:00:50.054Z,87.95
2022-12-08T10:03:18.823Z,59.97
2022-12-08T10:05:50.897Z,60.75
2022-12-08T10:08:21.120Z,66.75
2022-12-08T10:10:50.951Z,64.53
2022-12-08T10:13:23.028Z,59.60
2022-12-08T10:15:58.597Z,53.58
2022-12-08T10:18:28.119Z,61.75
2022-12-08T10:20:58.965Z,55.63
2022-12-08T10:23:31.140Z,47.55
2022-12-08T10:26:01.539Z,44.47
2022-12-08T10:28:30.628Z,48.22
2022-12-08T10:30:59.816Z,52.63
2022-12-08T10:33:29.319Z,48.90
2022-12-08T10:35:58.493Z,59.05
2022-12-08T10:38:28.175Z,59.33
2022-12-08T10:41:00.960Z,57.15
2022-12-08T10:43:28.828Z,53.20
2022-12-08T10:45:56.596Z,55.63
2022-12-08T10:48:28.610Z,63.47
2022-12-08T10:50:57.308Z,45.90
2022-12-08T10:53:26.101Z,88.82
2022-12-08T10:55:54.756Z,51.28
2022-12-08T10:58:30.381Z,45.72
2022-12-08T11:00:59.894Z,51.67
2022-12-08T11:03:30.298Z,50.95
2022-12-08T11:06:01.675Z,51.78
2022-12-08T11:08:33.514Z,53.15
2022-12-08T11:11:01.402Z,54.63
2022-12-08T11:13:30.049Z,42.95
2022-12-08T11:15:58.178Z,41.95
2022-12-08T11:18:28.867Z,41.70
2022-12-08T11:21:08.550Z,35.00
2022-12-08T11:23:37.417Z,38.53
2022-12-08T11:26:12.654Z,38.75
2022-12-08T11:28:40.747Z,40.17
2022-12-08T11:31:11.599Z,37.20
2022-12-08T11:33:39.645Z,40.90
2022-12-08T11:36:13.122Z,32.75
2022-12-08T11:38:42.307Z,37.42
2022-12-08T11:41:16.041Z,33.95
2022-12-08T11:43:47.849Z,32.38
2022-12-08T11:46:18.243Z,36.45
2022-12-08T11:48:49.127Z,48.17
2022-12-08T11:51:20.041Z,56.47
2022-12-08T11:53:54.085Z,37.25
2022-12-08T11:56:24.740Z,40.85
2022-12-08T11:58:54.347Z,39.15
2022-12-08T12:01:22.909Z,34.88
2022-12-08T12:03:55.066Z,42.53
2022-12-08T12:07:01.537Z,38.88
2022-12-08T12:09:23.644Z,38.20
2022-12-08T12:12:17.137Z,39.28
2022-12-08T12:14:53.790Z,40.53
2022-12-08T12:17:29.634Z,41.05
2022-12-08T12:20:00.494Z,38.67
2022-12-08T12:22:32.813Z,34.20
2022-12-08T12:25:00.634Z,49.83
2022-12-08T12:27:30.251Z,83.20
2022-12-08T12:30:00.045Z,31.42
2022-12-08T12:32:28.760Z,37.03
2022-12-08T12:34:58.366Z,35.00
2022-12-08T12:37:27.398Z,32.25
2022-12-08T12:39:59.337Z,37.63
2022-12-08T12:42:38.259Z,32.13
2022-12-08T12:45:13.709Z,30.08
2022-12-08T12:47:48.640Z,38.53
2022-12-08T12:50:35.093Z,37.55
2022-12-08T12:53:07.918Z,45.03
2022-12-08T12:55:53.453Z,46.40
2022-12-08T12:58:24.666Z,39.10
2022-12-08T13:01:12.649Z,40.92
2022-12-08T13:03:43.704Z,45.77
2022-12-08T13:06:14.766Z,47.00
2022-12-08T13:08:51.073Z,39.85
2022-12-08T13:11:19.016Z,32.20
2022-12-08T13:13:56.977Z,40.92
2022-12-08T13:16:26.554Z,39.35
2022-12-08T13:18:58.040Z,43.67
2022-12-08T13:21:26.617Z,39.88
2022-12-08T13:24:14.603Z,41.22
2022-12-08T13:26:44.867Z,31.13
2022-12-08T13:29:16.945Z,33.80
2022-12-08T13:31:50.506Z,25.83
2022-12-08T13:34:22.950Z,28.38
2022-12-08T13:36:53.679Z,33.25
2022-12-08T13:39:22.869Z,36.30
2022-12-08T13:41:53.296Z,32.22
2022-12-08T13:45:18.530Z,34.75
2022-12-08T13:47:33.235Z,39.45
2022-12-08T13:54:16.448Z,33.28
2022-12-08T13:58:33.719Z,31.13
2022-12-08T14:01:04.082Z,33.33
2022-12-08T14:03:32.138Z,38.95
2022-12-08T14:06:12.332Z,33.60
2022-12-08T14:09:05.078Z,35.08
2022-12-08T14:11:35.735Z,38.47
2022-12-08T14:14:04.415Z,28.08
2022-12-08T14:16:37.575Z,30.10
2022-12-08T14:19:06.236Z,34.90
2022-12-08T14:21:36.319Z,28.60
2022-12-08T14:24:04.317Z,36.58
2022-12-08T14:26:34.827Z,30.50
2022-12-08T14:29:03.351Z,30.95
2022-12-08T14:31:31.204Z,37.08
2022-12-08T14:33:59.295Z,40.63
2022-12-08T14:36:28.930Z,34.65
2022-12-08T14:38:58.190Z,32.53
2022-12-08T14:41:27.131Z,33.67
2022-12-08T14:44:01.854Z,31.02
2022-12-08T14:46:30.017Z,32.00
2022-12-08T14:48:58.848Z,34.22
2022-12-08T14:51:29.284Z,39.63
2022-12-08T14:53:59.718Z,35.63
2022-12-08T14:56:29.561Z,32.67
2022-12-08T14:59:05.834Z,35.60
2022-12-08T15:01:34.425Z,37.42
2022-12-08T15:04:03.457Z,43.58
2022-12-08T15:06:31.238Z,40.08
2022-12-08T15:09:00.917Z,38.10
2022-12-08T15:11:32.753Z,31.20
2022-12-08T15:14:00.994Z,34.13
2022-12-08T15:16:30.445Z,36.08
2022-12-08T15:19:02.744Z,37.88
2022-12-08T15:21:32.556Z,35.80
2022-12-08T15:24:01.720Z,42.78
2022-12-08T15:26:29.635Z,42.28
2022-12-08T15:28:57.393Z,84.60
2022-12-08T15:33:53.150Z,49.17
2022-12-08T15:36:20.916Z,39.97
2022-12-08T15:41:17.533Z,38.53
2022-12-08T15:43:45.361Z,39.58
2022-12-08T15:46:13.260Z,37.50
2022-12-08T15:48:41.155Z,36.85
2022-12-08T15:51:08.962Z,39.80
2022-12-08T15:53:36.655Z,45.95
2022-12-08T15:58:55.253Z,42.05
2022-12-08T16:01:24.311Z,41.05
2022-12-08T16:09:30.742Z,44.67
2022-12-08T16:12:15.995Z,43.17
2022-12-08T16:20:00.791Z,40.30
2022-12-08T16:22:54.620Z,40.22
2022-12-08T16:25:19.179Z,39.35
2022-12-08T16:28:23.301Z,43.25
2022-12-08T16:30:37.967Z,44.55
2022-12-08T16:33:06.023Z,42.78
2022-12-08T16:35:33.932Z,40.72
2022-12-08T16:38:01.858Z,38.63
2022-12-08T16:40:29.848Z,37.17
2022-12-08T16:42:57.226Z,35.58
2022-12-08T16:45:26.084Z,78.10
2022-12-08T16:47:56.041Z,78.82
2022-12-08T16:50:25.235Z,38.28
2022-12-08T16:52:57.715Z,39.05
2022-12-08T16:55:25.527Z,31.75
2022-12-08T16:57:53.615Z,40.53
2022-12-08T17:00:22.943Z,34.22
2022-12-08T17:02:51.224Z,33.05
2022-12-08T17:05:21.439Z,34.50
2022-12-08T17:07:50.142Z,32.47
2022-12-08T17:10:18.602Z,33.00
2022-12-08T17:12:46.745Z,35.05
2022-12-08T17:15:16.070Z,31.10
2022-12-08T17:17:43.822Z,32.78
2022-12-08T17:22:40.629Z,33.90
2022-12-08T17:25:11.369Z,38.10
2022-12-08T17:27:39.765Z,35.72
2022-12-08T17:30:08.841Z,34.33
2022-12-08T17:32:38.281Z,32.15
2022-12-08T17:35:06.704Z,30.50
2022-12-08T17:37:34.813Z,30.48
2022-12-08T17:40:04.483Z,30.40
2022-12-08T17:42:32.549Z,35.67
2022-12-08T17:47:27.865Z,37.10
2022-12-08T17:49:56.155Z,31.88
2022-12-08T17:52:23.981Z,28.70
2022-12-08T17:54:51.763Z,34.05
2022-12-08T17:57:21.104Z,33.40
2022-12-08T17:59:48.805Z,29.80
2022-12-08T18:04:44.222Z,27.33
2022-12-08T18:07:12.003Z,31.35
2022-12-08T18:09:40.248Z,27.55
2022-12-08T18:12:08.269Z,33.17
2022-12-08T18:14:37.515Z,29.48
2022-12-08T18:17:05.294Z,31.83
2022-12-08T18:19:33.199Z,32.90
2022-12-08T18:22:01.006Z,30.67
2022-12-08T18:26:57.771Z,28.90
2022-12-08T18:29:25.687Z,27.88
2022-12-08T18:31:55.059Z,26.10
2022-12-08T18:34:22.838Z,27.77
2022-12-08T18:39:22.030Z,29.13
2022-12-08T18:41:49.784Z,28.77
2022-12-08T18:46:45.238Z,25.13
2022-12-08T18:49:15.854Z,33.42
2022-12-08T18:51:43.944Z,36.78
2022-12-08T18:54:12.358Z,39.85
2022-12-08T18:56:40.417Z,36.83
2022-12-08T18:59:09.162Z,30.92
2022-12-08T19:01:38.136Z,31.25
2022-12-08T19:09:24.520Z,31.95
2022-12-08T19:11:52.303Z,33.97
2022-12-08T19:14:25.758Z,34.53
2022-12-08T19:16:55.534Z,32.83
2022-12-08T19:19:23.297Z,34.50
2022-12-08T19:21:51.231Z,29.65
2022-12-08T19:24:19.160Z,34.10
2022-12-08T19:26:48.349Z,29.55
2022-12-08T19:29:16.171Z,33.40
2022-12-08T19:31:44.109Z,30.75
2022-12-08T19:34:13.087Z,31.75
2022-12-08T19:36:42.786Z,66.90
2022-12-08T19:39:30.060Z,80.28
2022-12-08T19:42:16.573Z,37.38
2022-12-08T19:44:56.244Z,39.33
2022-12-08T19:47:25.014Z,32.13
2022-12-08T19:49:53.938Z,33.17
2022-12-08T19:52:22.289Z,35.10
2022-12-08T19:54:49.987Z,36.45
2022-12-08T19:59:50.413Z,37.25
2022-12-08T20:02:21.051Z,37.83
2022-12-08T20:04:48.901Z,40.05
2022-12-08T20:09:44.211Z,41.90
2022-12-08T20:14:45.498Z,46.33
2022-12-08T20:17:15.131Z,36.97
2022-12-08T20:19:42.882Z,41.72
2022-12-08T20:22:10.711Z,41.33
2022-12-08T20:24:38.623Z,43.78
2022-12-08T20:27:06.370Z,37.85
2022-12-08T20:29:34.432Z,40.38
2022-12-08T20:32:02.380Z,43.15
2022-12-08T20:34:32.725Z,41.55
2022-12-08T20:37:00.624Z,36.28
2022-12-08T20:39:28.330Z,42.83
2022-12-08T20:44:23.857Z,40.17
2022-12-08T20:46:51.751Z,43.97
2022-12-08T20:49:19.573Z,41.78
2022-12-08T20:51:48.780Z,38.60
2022-12-08T20:54:16.629Z,40.10
2022-12-08T20:56:48.332Z,40.97
2022-12-08T20:59:17.438Z,39.03
2022-12-08T21:01:45.230Z,37.30
2022-12-08T21:04:13.670Z,36.42
2022-12-08T21:06:41.821Z,41.75
2022-12-08T21:09:10.996Z,39.63
2022-12-08T21:11:39.040Z,39.05
2022-12-08T21:14:06.911Z,38.03
2022-12-08T21:16:36.090Z,38.67
2022-12-08T21:19:04.116Z,41.00
2022-12-08T21:21:31.936Z,41.47
2022-12-08T21:23:59.713Z,41.00
2022-12-08T21:28:58.500Z,40.38
2022-12-08T21:31:27.140Z,39.70
2022-12-08T21:33:55.332Z,41.65
2022-12-08T21:36:23.302Z,38.33
2022-12-08T21:38:51.401Z,46.15
2022-12-08T21:41:41.300Z,42.63
2022-12-08T21:44:11.351Z,42.72
2022-12-08T21:46:39.289Z,44.22
2022-12-08T21:49:07.757Z,46.92
2022-12-08T21:51:37.913Z,45.55
2022-12-08T21:54:06.111Z,51.20
2022-12-08T21:56:33.947Z,44.83
2022-12-08T21:59:01.878Z,49.17
2022-12-08T22:01:31.164Z,52.13
2022-12-08T22:03:59.165Z,48.20
2022-12-08T22:06:27.558Z,43.78
2022-12-08T22:08:56.238Z,46.15
2022-12-08T22:11:24.254Z,39.55
2022-12-08T22:13:52.085Z,42.92
2022-12-08T22:16:19.897Z,45.08
2022-12-08T22:18:49.098Z,44.00
2022-12-08T22:21:17.967Z,49.88
2022-12-08T22:23:45.740Z,41.05
2022-12-08T22:26:14.002Z,42.30
2022-12-08T22:28:42.583Z,44.67
2022-12-08T22:31:11.325Z,45.50
2022-12-08T22:33:39.810Z,41.22
2022-12-08T22:36:14.281Z,43.60
2022-12-08T22:38:42.102Z,47.80
2022-12-08T22:41:09.845Z,40.53
2022-12-08T22:43:37.742Z,45.65
2022-12-08T22:46:11.851Z,46.45
2022-12-08T22:48:40.707Z,80.90
2022-12-08T22:51:10.229Z,63.22
2022-12-08T22:53:38.831Z,47.42
2022-12-08T22:56:06.941Z,52.38
2022-12-08T22:58:35.083Z,48.95
2022-12-08T23:01:03.102Z,53.42
2022-12-08T23:03:30.966Z,51.05
2022-12-08T23:05:58.910Z,49.30
2022-12-08T23:08:28.633Z,49.78
2022-12-08T23:10:56.538Z,52.45
2022-12-08T23:15:51.884Z,49.75
2022-12-08T23:18:20.037Z,52.88
2022-12-08T23:20:48.304Z,53.53
2022-12-08T23:23:16.273Z,51.88
2022-12-08T23:25:45.661Z,49.28
2022-12-08T23:28:13.468Z,52.47
2022-12-08T23:33:09.245Z,46.42
2022-12-08T23:35:37.461Z,44.03
2022-12-08T23:38:05.500Z,48.63
2022-12-08T23:40:33.360Z,50.90
2022-12-08T23:43:02.520Z,47.20
2022-12-08T23:45:30.416Z,48.63
2022-12-08T23:47:58.234Z,46.28
2022-12-08T23:50:26.203Z,47.38
2022-12-08T23:52:54.066Z,49.45
2022-12-08T23:55:21.807Z,49.28
